sensor_id;sensor_type;location;lat;lon;timestamp;P1;durP1;ratioP1;P2;durP2;ratioP2
74170;SDS011;62526;50.948;6.590;2024-01-16T00:01:42;14.87;;;6.10;;
74170;SDS011;62526;50.948;6.590;2024-01-16T00:04:09;8.97;;;4.20;;
74170;SDS011;62526;50.948;6.590;2024-01-16T00:06:39;5.37;;;3.73;;
74170;SDS011;62526;50.948;6.590;2024-01-16T00:09:06;9.83;;;4.00;;
74170;SDS011;62526;50.948;6.590;2024-01-16T00:11:33;12.87;;;4.57;;
74170;SDS011;62526;50.948;6.590;2024-01-16T00:13:59;7.30;;;4.13;;
74170;SDS011;62526;50.948;6.590;2024-01-16T00:16:26;10.47;;;4.90;;
74170;SDS011;62526;50.948;6.590;2024-01-16T00:18:52;9.07;;;4.93;;
74170;SDS011;62526;50.948;6.590;2024-01-16T00:21:19;11.23;;;5.57;;
74170;SDS011;62526;50.948;6.590;2024-01-16T00:23:46;10.40;;;5.27;;
74170;SDS011;62526;50.948;6.590;2024-01-16T00:26:19;12.17;;;5.80;;
74170;SDS011;62526;50.948;6.590;2024-01-16T00:28:46;11.80;;;5.50;;
74170;SDS011;62526;50.948;6.590;2024-01-16T00:31:13;10.87;;;4.27;;
74170;SDS011;62526;50.948;6.590;2024-01-16T00:33:39;8.53;;;4.23;;
74170;SDS011;62526;50.948;6.590;2024-01-16T00:36:10;11.67;;;5.30;;
74170;SDS011;62526;50.948;6.590;2024-01-16T00:38:36;7.07;;;4.27;;
74170;SDS011;62526;50.948;6.590;2024-01-16T00:41:03;7.80;;;4.20;;
74170;SDS011;62526;50.948;6.590;2024-01-16T00:43:30;9.53;;;4.40;;
74170;SDS011;62526;50.948;6.590;2024-01-16T00:45:56;13.50;;;5.97;;
74170;SDS011;62526;50.948;6.590;2024-01-16T00:48:23;10.20;;;4.43;;
74170;SDS011;62526;50.948;6.590;2024-01-16T00:50:50;5.40;;;3.57;;
74170;SDS011;62526;50.948;6.590;2024-01-16T00:53:16;10.80;;;4.20;;
74170;SDS011;62526;50.948;6.590;2024-01-16T00:55:43;7.00;;;2.87;;
74170;SDS011;62526;50.948;6.590;2024-01-16T00:58:10;7.60;;;4.90;;
74170;SDS011;62526;50.948;6.590;2024-01-16T01:00:37;7.50;;;4.70;;
74170;SDS011;62526;50.948;6.590;2024-01-16T01:03:04;6.27;;;4.07;;
74170;SDS011;62526;50.948;6.590;2024-01-16T01:05:30;9.73;;;3.80;;
74170;SDS011;62526;50.948;6.590;2024-01-16T01:07:57;7.80;;;3.53;;
74170;SDS011;62526;50.948;6.590;2024-01-16T01:10:24;13.80;;;3.13;;
74170;SDS011;62526;50.948;6.590;2024-01-16T01:12:50;8.30;;;4.77;;
74170;SDS011;62526;50.948;6.590;2024-01-16T01:15:19;9.97;;;4.93;;
74170;SDS011;62526;50.948;6.590;2024-01-16T01:17:45;9.70;;;4.50;;
74170;SDS011;62526;50.948;6.590;2024-01-16T01:20:11;12.67;;;4.33;;
74170;SDS011;62526;50.948;6.590;2024-01-16T01:22:38;6.73;;;4.43;;
74170;SDS011;62526;50.948;6.590;2024-01-16T01:25:06;8.77;;;5.40;;
74170;SDS011;62526;50.948;6.590;2024-01-16T01:27:33;7.00;;;4.53;;
74170;SDS011;62526;50.948;6.590;2024-01-16T01:30:00;11.20;;;5.33;;
74170;SDS011;62526;50.948;6.590;2024-01-16T01:32:27;17.83;;;5.20;;
74170;SDS011;62526;50.948;6.590;2024-01-16T01:34:54;8.13;;;4.80;;
74170;SDS011;62526;50.948;6.590;2024-01-16T01:37:20;11.70;;;5.17;;
74170;SDS011;62526;50.948;6.590;2024-01-16T01:39:47;8.67;;;4.63;;
74170;SDS011;62526;50.948;6.590;2024-01-16T01:42:15;8.30;;;3.67;;
74170;SDS011;62526;50.948;6.590;2024-01-16T01:44:40;5.30;;;3.10;;
74170;SDS011;62526;50.948;6.590;2024-01-16T01:47:07;4.67;;;3.70;;
74170;SDS011;62526;50.948;6.590;2024-01-16T01:49:34;6.07;;;3.57;;
74170;SDS011;62526;50.948;6.590;2024-01-16T01:52:00;9.40;;;5.57;;
74170;SDS011;62526;50.948;6.590;2024-01-16T01:54:27;9.83;;;3.83;;
74170;SDS011;62526;50.948;6.590;2024-01-16T01:56:54;7.50;;;3.20;;
74170;SDS011;62526;50.948;6.590;2024-01-16T01:59:20;12.57;;;4.43;;
74170;SDS011;62526;50.948;6.590;2024-01-16T02:01:47;11.97;;;4.27;;
74170;SDS011;62526;50.948;6.590;2024-01-16T02:04:14;11.30;;;4.33;;
74170;SDS011;62526;50.948;6.590;2024-01-16T02:06:41;13.17;;;3.93;;
74170;SDS011;62526;50.948;6.590;2024-01-16T02:09:08;11.33;;;4.33;;
74170;SDS011;62526;50.948;6.590;2024-01-16T02:11:34;14.47;;;3.93;;
74170;SDS011;62526;50.948;6.590;2024-01-16T02:14:01;9.73;;;4.60;;
74170;SDS011;62526;50.948;6.590;2024-01-16T02:16:34;13.80;;;3.70;;
74170;SDS011;62526;50.948;6.590;2024-01-16T02:18:54;10.43;;;3.90;;
74170;SDS011;62526;50.948;6.590;2024-01-16T02:21:21;7.00;;;4.13;;
74170;SDS011;62526;50.948;6.590;2024-01-16T02:23:48;10.00;;;4.43;;
74170;SDS011;62526;50.948;6.590;2024-01-16T02:26:14;7.97;;;4.03;;
74170;SDS011;62526;50.948;6.590;2024-01-16T02:28:41;5.20;;;2.90;;
74170;SDS011;62526;50.948;6.590;2024-01-16T02:31:08;16.13;;;4.80;;
74170;SDS011;62526;50.948;6.590;2024-01-16T02:33:34;9.23;;;3.93;;
74170;SDS011;62526;50.948;6.590;2024-01-16T02:36:01;8.30;;;4.33;;
74170;SDS011;62526;50.948;6.590;2024-01-16T02:38:29;9.37;;;4.07;;
74170;SDS011;62526;50.948;6.590;2024-01-16T02:40:56;10.60;;;4.57;;
74170;SDS011;62526;50.948;6.590;2024-01-16T02:43:23;10.80;;;3.90;;
74170;SDS011;62526;50.948;6.590;2024-01-16T02:45:49;7.93;;;3.90;;
74170;SDS011;62526;50.948;6.590;2024-01-16T02:48:16;7.63;;;3.67;;
74170;SDS011;62526;50.948;6.590;2024-01-16T02:50:43;10.23;;;4.60;;
74170;SDS011;62526;50.948;6.590;2024-01-16T02:53:09;20.80;;;4.70;;
74170;SDS011;62526;50.948;6.590;2024-01-16T02:55:36;8.80;;;4.83;;
74170;SDS011;62526;50.948;6.590;2024-01-16T02:58:03;6.90;;;4.47;;
74170;SDS011;62526;50.948;6.590;2024-01-16T03:00:30;10.27;;;4.80;;
74170;SDS011;62526;50.948;6.590;2024-01-16T03:02:57;7.83;;;3.30;;
74170;SDS011;62526;50.948;6.590;2024-01-16T03:05:23;4.63;;;4.13;;
74170;SDS011;62526;50.948;6.590;2024-01-16T03:07:50;13.33;;;4.77;;
74170;SDS011;62526;50.948;6.590;2024-01-16T03:10:16;9.23;;;5.10;;
74170;SDS011;62526;50.948;6.590;2024-01-16T03:12:43;12.33;;;5.47;;
74170;SDS011;62526;50.948;6.590;2024-01-16T03:15:10;9.80;;;5.33;;
74170;SDS011;62526;50.948;6.590;2024-01-16T03:17:36;10.23;;;4.83;;
74170;SDS011;62526;50.948;6.590;2024-01-16T03:20:03;11.27;;;5.00;;
74170;SDS011;62526;50.948;6.590;2024-01-16T03:22:30;8.17;;;5.10;;
74170;SDS011;62526;50.948;6.590;2024-01-16T03:24:57;7.53;;;4.50;;
74170;SDS011;62526;50.948;6.590;2024-01-16T03:27:24;8.47;;;5.10;;
74170;SDS011;62526;50.948;6.590;2024-01-16T03:29:51;11.07;;;5.60;;
74170;SDS011;62526;50.948;6.590;2024-01-16T03:32:19;7.40;;;4.53;;
74170;SDS011;62526;50.948;6.590;2024-01-16T03:34:45;11.93;;;5.30;;
74170;SDS011;62526;50.948;6.590;2024-01-16T03:37:15;14.17;;;5.83;;
74170;SDS011;62526;50.948;6.590;2024-01-16T03:39:56;8.37;;;5.47;;
74170;SDS011;62526;50.948;6.590;2024-01-16T03:42:23;10.97;;;7.87;;
74170;SDS011;62526;50.948;6.590;2024-01-16T03:44:51;12.20;;;5.17;;
74170;SDS011;62526;50.948;6.590;2024-01-16T03:47:17;11.27;;;5.23;;
74170;SDS011;62526;50.948;6.590;2024-01-16T03:49:44;10.63;;;4.60;;
74170;SDS011;62526;50.948;6.590;2024-01-16T03:52:11;8.67;;;3.80;;
74170;SDS011;62526;50.948;6.590;2024-01-16T03:54:38;9.70;;;4.07;;
74170;SDS011;62526;50.948;6.590;2024-01-16T03:57:04;6.87;;;4.80;;
74170;SDS011;62526;50.948;6.590;2024-01-16T03:59:31;9.73;;;4.17;;
74170;SDS011;62526;50.948;6.590;2024-01-16T04:01:58;10.50;;;4.47;;
74170;SDS011;62526;50.948;6.590;2024-01-16T04:04:24;10.97;;;4.47;;
74170;SDS011;62526;50.948;6.590;2024-01-16T04:06:51;8.80;;;4.37;;
74170;SDS011;62526;50.948;6.590;2024-01-16T04:09:18;7.97;;;5.50;;
74170;SDS011;62526;50.948;6.590;2024-01-16T04:11:44;8.13;;;4.87;;
74170;SDS011;62526;50.948;6.590;2024-01-16T04:14:11;9.80;;;4.83;;
74170;SDS011;62526;50.948;6.590;2024-01-16T04:16:37;14.83;;;5.30;;
74170;SDS011;62526;50.948;6.590;2024-01-16T04:19:05;13.73;;;6.97;;
74170;SDS011;62526;50.948;6.590;2024-01-16T04:21:31;14.20;;;5.77;;
74170;SDS011;62526;50.948;6.590;2024-01-16T04:23:58;8.27;;;4.63;;
74170;SDS011;62526;50.948;6.590;2024-01-16T04:26:25;10.90;;;4.83;;
74170;SDS011;62526;50.948;6.590;2024-01-16T04:28:51;9.70;;;4.87;;
74170;SDS011;62526;50.948;6.590;2024-01-16T04:31:18;13.83;;;6.17;;
74170;SDS011;62526;50.948;6.590;2024-01-16T04:33:45;10.83;;;5.83;;
74170;SDS011;62526;50.948;6.590;2024-01-16T04:36:13;7.83;;;5.00;;
74170;SDS011;62526;50.948;6.590;2024-01-16T04:38:40;18.23;;;5.27;;
74170;SDS011;62526;50.948;6.590;2024-01-16T04:41:08;11.43;;;4.47;;
74170;SDS011;62526;50.948;6.590;2024-01-16T04:43:35;7.03;;;4.00;;
74170;SDS011;62526;50.948;6.590;2024-01-16T04:46:02;15.90;;;3.50;;
74170;SDS011;62526;50.948;6.590;2024-01-16T04:48:30;15.53;;;4.10;;
74170;SDS011;62526;50.948;6.590;2024-01-16T04:50:58;4.93;;;2.83;;
74170;SDS011;62526;50.948;6.590;2024-01-16T04:53:24;15.97;;;4.73;;
74170;SDS011;62526;50.948;6.590;2024-01-16T04:55:51;13.83;;;4.30;;
74170;SDS011;62526;50.948;6.590;2024-01-16T04:58:18;15.00;;;4.37;;
74170;SDS011;62526;50.948;6.590;2024-01-16T05:00:44;13.20;;;3.27;;
74170;SDS011;62526;50.948;6.590;2024-01-16T05:03:11;12.27;;;3.10;;
74170;SDS011;62526;50.948;6.590;2024-01-16T05:05:38;7.27;;;4.03;;
74170;SDS011;62526;50.948;6.590;2024-01-16T05:08:04;11.00;;;4.27;;
74170;SDS011;62526;50.948;6.590;2024-01-16T05:10:31;6.73;;;3.23;;
74170;SDS011;62526;50.948;6.590;2024-01-16T05:12:58;10.40;;;3.40;;
74170;SDS011;62526;50.948;6.590;2024-01-16T05:15:24;19.43;;;4.10;;
74170;SDS011;62526;50.948;6.590;2024-01-16T05:17:51;3.47;;;2.70;;
74170;SDS011;62526;50.948;6.590;2024-01-16T05:20:18;8.33;;;3.17;;
74170;SDS011;62526;50.948;6.590;2024-01-16T05:22:44;5.30;;;2.67;;
74170;SDS011;62526;50.948;6.590;2024-01-16T05:25:12;5.27;;;3.07;;
74170;SDS011;62526;50.948;6.590;2024-01-16T05:27:38;9.60;;;3.10;;
74170;SDS011;62526;50.948;6.590;2024-01-16T05:30:05;6.87;;;2.77;;
74170;SDS011;62526;50.948;6.590;2024-01-16T05:32:32;6.07;;;2.30;;
74170;SDS011;62526;50.948;6.590;2024-01-16T05:34:59;15.73;;;3.83;;
74170;SDS011;62526;50.948;6.590;2024-01-16T05:37:25;11.83;;;3.27;;
74170;SDS011;62526;50.948;6.590;2024-01-16T05:39:53;4.20;;;2.40;;
74170;SDS011;62526;50.948;6.590;2024-01-16T05:42:21;14.13;;;3.33;;
74170;SDS011;62526;50.948;6.590;2024-01-16T05:44:48;9.47;;;2.60;;
74170;SDS011;62526;50.948;6.590;2024-01-16T05:47:17;8.37;;;3.33;;
74170;SDS011;62526;50.948;6.590;2024-01-16T05:49:46;16.43;;;4.13;;
74170;SDS011;62526;50.948;6.590;2024-01-16T05:52:13;6.83;;;2.93;;
74170;SDS011;62526;50.948;6.590;2024-01-16T05:54:40;10.30;;;2.87;;
74170;SDS011;62526;50.948;6.590;2024-01-16T05:57:07;8.27;;;3.30;;
74170;SDS011;62526;50.948;6.590;2024-01-16T05:59:33;7.57;;;2.67;;
74170;SDS011;62526;50.948;6.590;2024-01-16T06:02:00;7.20;;;3.00;;
74170;SDS011;62526;50.948;6.590;2024-01-16T06:04:27;4.40;;;1.80;;
74170;SDS011;62526;50.948;6.590;2024-01-16T06:06:54;11.27;;;3.23;;
74170;SDS011;62526;50.948;6.590;2024-01-16T06:09:21;12.70;;;3.40;;
74170;SDS011;62526;50.948;6.590;2024-01-16T06:11:47;9.90;;;2.20;;
74170;SDS011;62526;50.948;6.590;2024-01-16T06:14:14;6.40;;;3.00;;
74170;SDS011;62526;50.948;6.590;2024-01-16T06:16:40;9.77;;;3.03;;
74170;SDS011;62526;50.948;6.590;2024-01-16T06:19:07;10.90;;;3.00;;
74170;SDS011;62526;50.948;6.590;2024-01-16T06:21:34;7.63;;;2.97;;
74170;SDS011;62526;50.948;6.590;2024-01-16T06:24:01;11.27;;;3.40;;
74170;SDS011;62526;50.948;6.590;2024-01-16T06:26:28;7.27;;;3.50;;
74170;SDS011;62526;50.948;6.590;2024-01-16T06:28:54;16.47;;;3.93;;
74170;SDS011;62526;50.948;6.590;2024-01-16T06:31:22;17.63;;;3.60;;
74170;SDS011;62526;50.948;6.590;2024-01-16T06:33:48;2.03;;;1.83;;
74170;SDS011;62526;50.948;6.590;2024-01-16T06:36:16;5.37;;;2.60;;
74170;SDS011;62526;50.948;6.590;2024-01-16T06:38:45;11.80;;;3.60;;
74170;SDS011;62526;50.948;6.590;2024-01-16T06:41:12;15.90;;;3.60;;
74170;SDS011;62526;50.948;6.590;2024-01-16T06:43:40;10.67;;;3.83;;
74170;SDS011;62526;50.948;6.590;2024-01-16T06:46:06;9.60;;;3.53;;
74170;SDS011;62526;50.948;6.590;2024-01-16T06:48:34;19.97;;;4.33;;
74170;SDS011;62526;50.948;6.590;2024-01-16T06:51:01;13.70;;;3.70;;
74170;SDS011;62526;50.948;6.590;2024-01-16T06:53:28;11.37;;;3.43;;
74170;SDS011;62526;50.948;6.590;2024-01-16T06:55:55;8.37;;;3.30;;
74170;SDS011;62526;50.948;6.590;2024-01-16T06:58:21;6.80;;;2.83;;
74170;SDS011;62526;50.948;6.590;2024-01-16T07:00:49;13.27;;;4.27;;
74170;SDS011;62526;50.948;6.590;2024-01-16T07:03:15;5.10;;;2.40;;
74170;SDS011;62526;50.948;6.590;2024-01-16T07:05:43;8.43;;;3.23;;
74170;SDS011;62526;50.948;6.590;2024-01-16T07:08:09;13.77;;;3.73;;
74170;SDS011;62526;50.948;6.590;2024-01-16T07:10:36;9.77;;;3.03;;
74170;SDS011;62526;50.948;6.590;2024-01-16T07:13:02;6.93;;;2.80;;
74170;SDS011;62526;50.948;6.590;2024-01-16T07:15:29;6.43;;;2.17;;
74170;SDS011;62526;50.948;6.590;2024-01-16T07:17:56;6.00;;;2.83;;
74170;SDS011;62526;50.948;6.590;2024-01-16T07:20:22;10.60;;;3.23;;
74170;SDS011;62526;50.948;6.590;2024-01-16T07:22:49;5.70;;;3.03;;
74170;SDS011;62526;50.948;6.590;2024-01-16T07:25:17;6.57;;;2.97;;
74170;SDS011;62526;50.948;6.590;2024-01-16T07:27:43;9.07;;;3.07;;
74170;SDS011;62526;50.948;6.590;2024-01-16T07:30:10;10.23;;;2.80;;
74170;SDS011;62526;50.948;6.590;2024-01-16T07:32:38;7.43;;;3.20;;
74170;SDS011;62526;50.948;6.590;2024-01-16T07:35:05;9.60;;;3.00;;
74170;SDS011;62526;50.948;6.590;2024-01-16T07:37:32;4.70;;;2.47;;
74170;SDS011;62526;50.948;6.590;2024-01-16T07:39:58;8.07;;;3.00;;
74170;SDS011;62526;50.948;6.590;2024-01-16T07:42:25;7.13;;;3.17;;
74170;SDS011;62526;50.948;6.590;2024-01-16T07:44:52;5.73;;;2.30;;
74170;SDS011;62526;50.948;6.590;2024-01-16T07:47:18;5.33;;;2.33;;
74170;SDS011;62526;50.948;6.590;2024-01-16T07:49:46;16.30;;;3.80;;
74170;SDS011;62526;50.948;6.590;2024-01-16T07:52:12;8.53;;;2.43;;
74170;SDS011;62526;50.948;6.590;2024-01-16T07:54:39;9.10;;;3.57;;
74170;SDS011;62526;50.948;6.590;2024-01-16T07:57:07;9.10;;;3.00;;
74170;SDS011;62526;50.948;6.590;2024-01-16T07:59:33;7.83;;;2.97;;
74170;SDS011;62526;50.948;6.590;2024-01-16T08:02:00;8.37;;;2.80;;
74170;SDS011;62526;50.948;6.590;2024-01-16T08:04:26;5.73;;;2.30;;
74170;SDS011;62526;50.948;6.590;2024-01-16T08:06:53;8.13;;;2.90;;
74170;SDS011;62526;50.948;6.590;2024-01-16T08:09:20;4.93;;;2.17;;
74170;SDS011;62526;50.948;6.590;2024-01-16T08:11:47;7.50;;;2.97;;
74170;SDS011;62526;50.948;6.590;2024-01-16T08:14:14;7.40;;;3.07;;
74170;SDS011;62526;50.948;6.590;2024-01-16T08:16:40;6.67;;;2.80;;
74170;SDS011;62526;50.948;6.590;2024-01-16T08:19:07;3.67;;;2.33;;
74170;SDS011;62526;50.948;6.590;2024-01-16T08:21:36;6.40;;;2.43;;
74170;SDS011;62526;50.948;6.590;2024-01-16T08:24:02;16.70;;;3.40;;
74170;SDS011;62526;50.948;6.590;2024-01-16T08:26:29;3.10;;;2.00;;
74170;SDS011;62526;50.948;6.590;2024-01-16T08:28:56;12.17;;;3.03;;
74170;SDS011;62526;50.948;6.590;2024-01-16T08:31:22;10.40;;;3.27;;
74170;SDS011;62526;50.948;6.590;2024-01-16T08:33:49;8.10;;;3.03;;
74170;SDS011;62526;50.948;6.590;2024-01-16T08:36:17;5.40;;;2.30;;
74170;SDS011;62526;50.948;6.590;2024-01-16T08:38:44;10.67;;;3.00;;
74170;SDS011;62526;50.948;6.590;2024-01-16T08:41:12;7.57;;;3.33;;
74170;SDS011;62526;50.948;6.590;2024-01-16T08:43:40;8.20;;;3.00;;
74170;SDS011;62526;50.948;6.590;2024-01-16T08:46:08;8.50;;;2.33;;
74170;SDS011;62526;50.948;6.590;2024-01-16T08:48:35;3.77;;;2.30;;
74170;SDS011;62526;50.948;6.590;2024-01-16T08:51:03;12.90;;;2.83;;
74170;SDS011;62526;50.948;6.590;2024-01-16T08:53:28;14.83;;;2.83;;
74170;SDS011;62526;50.948;6.590;2024-01-16T08:55:56;8.03;;;2.50;;
74170;SDS011;62526;50.948;6.590;2024-01-16T08:58:23;3.73;;;2.10;;
74170;SDS011;62526;50.948;6.590;2024-01-16T09:00:50;5.70;;;2.90;;
74170;SDS011;62526;50.948;6.590;2024-01-16T09:03:17;5.20;;;2.77;;
74170;SDS011;62526;50.948;6.590;2024-01-16T09:05:44;11.03;;;2.93;;
74170;SDS011;62526;50.948;6.590;2024-01-16T09:08:10;9.73;;;3.33;;
74170;SDS011;62526;50.948;6.590;2024-01-16T09:10:39;6.63;;;3.10;;
74170;SDS011;62526;50.948;6.590;2024-01-16T09:13:06;9.67;;;3.27;;
74170;SDS011;62526;50.948;6.590;2024-01-16T09:15:33;9.33;;;2.63;;
74170;SDS011;62526;50.948;6.590;2024-01-16T09:18:00;20.87;;;3.40;;
74170;SDS011;62526;50.948;6.590;2024-01-16T09:20:26;9.30;;;2.73;;
74170;SDS011;62526;50.948;6.590;2024-01-16T09:22:53;7.53;;;2.20;;
74170;SDS011;62526;50.948;6.590;2024-01-16T09:25:20;13.17;;;3.57;;
74170;SDS011;62526;50.948;6.590;2024-01-16T09:27:46;6.07;;;2.83;;
74170;SDS011;62526;50.948;6.590;2024-01-16T09:30:13;6.93;;;2.90;;
74170;SDS011;62526;50.948;6.590;2024-01-16T09:32:40;5.43;;;2.57;;
74170;SDS011;62526;50.948;6.590;2024-01-16T09:35:06;8.33;;;3.00;;
74170;SDS011;62526;50.948;6.590;2024-01-16T09:37:33;14.17;;;2.80;;
74170;SDS011;62526;50.948;6.590;2024-01-16T09:40:02;9.17;;;3.03;;
74170;SDS011;62526;50.948;6.590;2024-01-16T09:42:29;10.07;;;3.33;;
74170;SDS011;62526;50.948;6.590;2024-01-16T09:44:55;7.33;;;3.63;;
74170;SDS011;62526;50.948;6.590;2024-01-16T09:47:22;7.80;;;3.00;;
74170;SDS011;62526;50.948;6.590;2024-01-16T09:49:49;9.07;;;3.47;;
74170;SDS011;62526;50.948;6.590;2024-01-16T09:52:16;7.03;;;2.73;;
74170;SDS011;62526;50.948;6.590;2024-01-16T09:54:43;8.20;;;2.00;;
74170;SDS011;62526;50.948;6.590;2024-01-16T09:57:09;6.40;;;2.97;;
74170;SDS011;62526;50.948;6.590;2024-01-16T09:59:36;10.20;;;3.27;;
74170;SDS011;62526;50.948;6.590;2024-01-16T10:02:03;7.60;;;3.07;;
74170;SDS011;62526;50.948;6.590;2024-01-16T10:04:31;6.70;;;3.20;;
74170;SDS011;62526;50.948;6.590;2024-01-16T10:06:57;4.93;;;2.43;;
74170;SDS011;62526;50.948;6.590;2024-01-16T10:09:24;7.57;;;3.33;;
74170;SDS011;62526;50.948;6.590;2024-01-16T10:11:51;8.33;;;2.70;;
74170;SDS011;62526;50.948;6.590;2024-01-16T10:14:18;6.17;;;3.07;;
74170;SDS011;62526;50.948;6.590;2024-01-16T10:17:05;5.63;;;3.00;;
74170;SDS011;62526;50.948;6.590;2024-01-16T10:19:32;7.20;;;3.27;;
74170;SDS011;62526;50.948;6.590;2024-01-16T10:22:02;4.90;;;2.30;;
74170;SDS011;62526;50.948;6.590;2024-01-16T10:24:30;7.50;;;2.97;;
74170;SDS011;62526;50.948;6.590;2024-01-16T10:26:57;7.93;;;3.63;;
74170;SDS011;62526;50.948;6.590;2024-01-16T10:29:24;8.97;;;3.27;;
74170;SDS011;62526;50.948;6.590;2024-01-16T10:31:50;8.47;;;2.83;;
74170;SDS011;62526;50.948;6.590;2024-01-16T10:34:19;6.80;;;2.97;;
74170;SDS011;62526;50.948;6.590;2024-01-16T10:36:46;10.67;;;3.43;;
74170;SDS011;62526;50.948;6.590;2024-01-16T10:39:13;6.20;;;3.37;;
74170;SDS011;62526;50.948;6.590;2024-01-16T10:41:39;7.37;;;3.83;;
74170;SDS011;62526;50.948;6.590;2024-01-16T10:44:06;11.20;;;3.10;;
74170;SDS011;62526;50.948;6.590;2024-01-16T10:46:34;6.33;;;2.43;;
74170;SDS011;62526;50.948;6.590;2024-01-16T10:49:01;19.03;;;2.57;;
74170;SDS011;62526;50.948;6.590;2024-01-16T10:51:27;5.37;;;2.27;;
74170;SDS011;62526;50.948;6.590;2024-01-16T10:53:58;4.37;;;2.43;;
74170;SDS011;62526;50.948;6.590;2024-01-16T10:56:20;8.93;;;3.10;;
74170;SDS011;62526;50.948;6.590;2024-01-16T10:58:47;8.33;;;2.93;;
74170;SDS011;62526;50.948;6.590;2024-01-16T11:01:15;6.40;;;2.47;;
74170;SDS011;62526;50.948;6.590;2024-01-16T11:03:47;15.33;;;3.27;;
74170;SDS011;62526;50.948;6.590;2024-01-16T11:06:15;4.90;;;1.73;;
74170;SDS011;62526;50.948;6.590;2024-01-16T11:08:40;13.33;;;3.50;;
74170;SDS011;62526;50.948;6.590;2024-01-16T11:11:07;7.13;;;2.67;;
74170;SDS011;62526;50.948;6.590;2024-01-16T11:13:35;9.77;;;3.43;;
74170;SDS011;62526;50.948;6.590;2024-01-16T11:16:02;8.13;;;2.87;;
74170;SDS011;62526;50.948;6.590;2024-01-16T11:18:30;4.87;;;2.27;;
74170;SDS011;62526;50.948;6.590;2024-01-16T11:20:58;9.10;;;3.23;;
74170;SDS011;62526;50.948;6.590;2024-01-16T11:23:24;5.00;;;2.63;;
74170;SDS011;62526;50.948;6.590;2024-01-16T11:25:51;6.13;;;3.30;;
74170;SDS011;62526;50.948;6.590;2024-01-16T11:28:17;11.53;;;3.67;;
74170;SDS011;62526;50.948;6.590;2024-01-16T11:30:44;6.30;;;2.63;;
74170;SDS011;62526;50.948;6.590;2024-01-16T11:33:46;3.53;;;2.97;;
74170;SDS011;62526;50.948;6.590;2024-01-16T11:39:03;7.33;;;2.83;;
74170;SDS011;62526;50.948;6.590;2024-01-16T11:42:08;5.10;;;2.80;;
74170;SDS011;62526;50.948;6.590;2024-01-16T11:47:00;3.53;;;2.30;;
74170;SDS011;62526;50.948;6.590;2024-01-16T11:49:26;9.20;;;2.60;;
74170;SDS011;62526;50.948;6.590;2024-01-16T11:51:53;6.83;;;2.83;;
74170;SDS011;62526;50.948;6.590;2024-01-16T11:54:19;4.07;;;2.57;;
74170;SDS011;62526;50.948;6.590;2024-01-16T11:56:52;7.57;;;2.43;;
74170;SDS011;62526;50.948;6.590;2024-01-16T11:59:32;7.83;;;3.03;;
74170;SDS011;62526;50.948;6.590;2024-01-16T12:02:12;9.03;;;3.50;;
74170;SDS011;62526;50.948;6.590;2024-01-16T12:04:38;8.73;;;2.80;;
74170;SDS011;62526;50.948;6.590;2024-01-16T12:07:05;5.43;;;2.70;;
74170;SDS011;62526;50.948;6.590;2024-01-16T12:09:31;3.97;;;2.40;;
74170;SDS011;62526;50.948;6.590;2024-01-16T12:12:00;9.93;;;3.97;;
74170;SDS011;62526;50.948;6.590;2024-01-16T12:14:26;9.47;;;3.30;;
74170;SDS011;62526;50.948;6.590;2024-01-16T12:16:52;5.87;;;2.77;;
74170;SDS011;62526;50.948;6.590;2024-01-16T12:19:19;2.87;;;1.97;;
74170;SDS011;62526;50.948;6.590;2024-01-16T12:21:46;9.23;;;3.10;;
74170;SDS011;62526;50.948;6.590;2024-01-16T12:24:12;5.00;;;2.53;;
74170;SDS011;62526;50.948;6.590;2024-01-16T12:26:39;11.10;;;3.10;;
74170;SDS011;62526;50.948;6.590;2024-01-16T12:29:07;6.73;;;1.80;;
74170;SDS011;62526;50.948;6.590;2024-01-16T12:31:33;9.77;;;2.93;;
74170;SDS011;62526;50.948;6.590;2024-01-16T12:34:05;9.40;;;3.13;;
74170;SDS011;62526;50.948;6.590;2024-01-16T12:36:36;9.73;;;3.23;;
74170;SDS011;62526;50.948;6.590;2024-01-16T12:39:03;4.67;;;2.37;;
74170;SDS011;62526;50.948;6.590;2024-01-16T12:41:31;3.83;;;1.90;;
74170;SDS011;62526;50.948;6.590;2024-01-16T12:43:57;8.77;;;3.23;;
74170;SDS011;62526;50.948;6.590;2024-01-16T12:46:25;10.30;;;3.07;;
74170;SDS011;62526;50.948;6.590;2024-01-16T12:48:52;8.73;;;2.97;;
74170;SDS011;62526;50.948;6.590;2024-01-16T12:51:20;6.40;;;2.97;;
74170;SDS011;62526;50.948;6.590;2024-01-16T12:53:46;5.73;;;2.63;;
74170;SDS011;62526;50.948;6.590;2024-01-16T12:56:17;5.87;;;2.70;;
74170;SDS011;62526;50.948;6.590;2024-01-16T12:58:40;6.30;;;2.53;;
74170;SDS011;62526;50.948;6.590;2024-01-16T13:01:41;7.63;;;3.23;;
74170;SDS011;62526;50.948;6.590;2024-01-16T13:03:51;7.57;;;2.73;;
74170;SDS011;62526;50.948;6.590;2024-01-16T13:06:18;7.70;;;2.77;;
74170;SDS011;62526;50.948;6.590;2024-01-16T13:08:47;5.30;;;2.27;;
74170;SDS011;62526;50.948;6.590;2024-01-16T13:11:13;7.93;;;3.07;;
74170;SDS011;62526;50.948;6.590;2024-01-16T13:13:47;5.60;;;2.60;;
74170;SDS011;62526;50.948;6.590;2024-01-16T13:16:15;6.53;;;3.60;;
74170;SDS011;62526;50.948;6.590;2024-01-16T13:18:42;14.83;;;3.50;;
74170;SDS011;62526;50.948;6.590;2024-01-16T13:21:08;6.90;;;3.43;;
74170;SDS011;62526;50.948;6.590;2024-01-16T13:23:35;7.97;;;3.30;;
74170;SDS011;62526;50.948;6.590;2024-01-16T13:26:02;2.20;;;1.83;;
74170;SDS011;62526;50.948;6.590;2024-01-16T13:28:30;7.60;;;3.70;;
74170;SDS011;62526;50.948;6.590;2024-01-16T13:30:56;7.87;;;3.70;;
74170;SDS011;62526;50.948;6.590;2024-01-16T13:33:24;7.33;;;3.20;;
74170;SDS011;62526;50.948;6.590;2024-01-16T13:35:57;5.43;;;3.07;;
74170;SDS011;62526;50.948;6.590;2024-01-16T13:38:24;5.23;;;3.40;;
74170;SDS011;62526;50.948;6.590;2024-01-16T13:40:51;7.73;;;4.40;;
74170;SDS011;62526;50.948;6.590;2024-01-16T13:43:18;3.90;;;2.20;;
74170;SDS011;62526;50.948;6.590;2024-01-16T13:45:45;5.83;;;3.20;;
74170;SDS011;62526;50.948;6.590;2024-01-16T13:48:13;7.60;;;3.10;;
74170;SDS011;62526;50.948;6.590;2024-01-16T13:50:39;6.80;;;2.37;;
74170;SDS011;62526;50.948;6.590;2024-01-16T13:53:06;6.90;;;3.70;;
74170;SDS011;62526;50.948;6.590;2024-01-16T13:55:33;4.93;;;2.63;;
74170;SDS011;62526;50.948;6.590;2024-01-16T13:57:59;7.90;;;2.97;;
74170;SDS011;62526;50.948;6.590;2024-01-16T14:00:26;4.30;;;2.90;;
74170;SDS011;62526;50.948;6.590;2024-01-16T14:02:52;5.23;;;2.87;;
74170;SDS011;62526;50.948;6.590;2024-01-16T14:05:19;7.13;;;3.83;;
74170;SDS011;62526;50.948;6.590;2024-01-16T14:07:47;7.73;;;3.63;;
74170;SDS011;62526;50.948;6.590;2024-01-16T14:10:14;4.20;;;2.57;;
74170;SDS011;62526;50.948;6.590;2024-01-16T14:12:41;9.17;;;3.70;;
74170;SDS011;62526;50.948;6.590;2024-01-16T14:15:08;7.63;;;3.67;;
74170;SDS011;62526;50.948;6.590;2024-01-16T14:17:35;5.63;;;2.93;;
74170;SDS011;62526;50.948;6.590;2024-01-16T14:20:02;9.60;;;3.93;;
74170;SDS011;62526;50.948;6.590;2024-01-16T14:22:28;8.97;;;3.37;;
74170;SDS011;62526;50.948;6.590;2024-01-16T14:24:55;5.43;;;3.17;;
74170;SDS011;62526;50.948;6.590;2024-01-16T14:27:23;8.77;;;3.93;;
74170;SDS011;62526;50.948;6.590;2024-01-16T14:29:50;11.40;;;3.03;;
74170;SDS011;62526;50.948;6.590;2024-01-16T14:32:16;5.57;;;3.80;;
74170;SDS011;62526;50.948;6.590;2024-01-16T14:34:44;6.90;;;3.27;;
74170;SDS011;62526;50.948;6.590;2024-01-16T14:37:10;8.30;;;4.23;;
74170;SDS011;62526;50.948;6.590;2024-01-16T14:39:37;8.67;;;4.30;;
74170;SDS011;62526;50.948;6.590;2024-01-16T14:42:04;6.50;;;3.67;;
74170;SDS011;62526;50.948;6.590;2024-01-16T14:44:31;8.90;;;3.83;;
74170;SDS011;62526;50.948;6.590;2024-01-16T14:46:59;9.70;;;4.00;;
74170;SDS011;62526;50.948;6.590;2024-01-16T14:49:26;12.30;;;4.00;;